createdAt,value
2018-10-06T00:01:57.441Z,100802.09
2018-10-06T00:04:23.511Z,100800.27
2018-10-06T00:06:49.487Z,100798.39
2018-10-06T00:09:15.480Z,100804.40
2018-10-06T00:11:41.539Z,100797.30
2018-10-06T00:14:07.491Z,100797.16
2018-10-06T00:16:33.509Z,100797.86
2018-10-06T00:18:59.540Z,100793.39
2018-10-06T00:21:25.512Z,100786.73
2018-10-06T00:23:51.467Z,100782.69
2018-10-06T00:26:17.444Z,100779.72
2018-10-06T00:28:43.496Z,100777.41
2018-10-06T00:31:09.475Z,100775.76
2018-10-06T00:33:35.427Z,100774.77
2018-10-06T00:36:01.412Z,100776.45
2018-10-06T00:38:27.364Z,100775.43
2018-10-06T00:40:53.331Z,100772.43
2018-10-06T00:43:19.290Z,100773.92
2018-10-06T00:45:45.260Z,100768.77
2018-10-06T00:48:11.293Z,100766.77
2018-10-06T00:50:37.248Z,100769.41
2018-10-06T00:53:03.164Z,100768.08
2018-10-06T00:55:29.147Z,100772.67
2018-10-06T00:57:55.124Z,100767.83
2018-10-06T01:00:21.111Z,100761.73
2018-10-06T01:02:47.060Z,100759.22
2018-10-06T01:05:13.011Z,100752.63
2018-10-06T01:07:38.970Z,100751.41
2018-10-06T01:10:04.914Z,100752.10
2018-10-06T01:12:30.866Z,100746.33
2018-10-06T01:14:56.869Z,100745.37
2018-10-06T01:17:22.815Z,100738.96
2018-10-06T01:19:48.762Z,100737.97
2018-10-06T01:22:14.726Z,100735.87
2018-10-06T01:24:40.680Z,100735.02
2018-10-06T01:27:06.634Z,100724.83
2018-10-06T01:29:32.592Z,100719.19
2018-10-06T01:31:58.558Z,100707.97
2018-10-06T01:34:24.502Z,100713.25
2018-10-06T01:36:50.475Z,100714.34
2018-10-06T01:39:16.427Z,100711.87
2018-10-06T01:41:42.367Z,100716.66
2018-10-06T01:44:08.332Z,100712.37
2018-10-06T01:46:34.279Z,100710.20
2018-10-06T01:49:00.231Z,100711.05
2018-10-06T01:51:26.195Z,100712.02
2018-10-06T01:53:52.204Z,100708.88
2018-10-06T01:56:18.164Z,100712.50
2018-10-06T01:58:44.124Z,100706.54
2018-10-06T02:01:10.091Z,100707.23
2018-10-06T02:03:36.044Z,100711.87
2018-10-06T02:06:02.015Z,100713.20
2018-10-06T02:08:27.994Z,100706.92
2018-10-06T02:10:53.940Z,100708.44
2018-10-06T02:13:19.916Z,100706.42
2018-10-06T02:15:46.115Z,100705.96
2018-10-06T02:18:12.096Z,100703.95
2018-10-06T02:20:38.112Z,100709.73
2018-10-06T02:23:04.060Z,100701.13
2018-10-06T02:25:30.009Z,100698.81
2018-10-06T02:27:55.987Z,100687.73
2018-10-06T02:30:21.983Z,100681.63
2018-10-06T02:32:47.931Z,100685.04
2018-10-06T02:35:13.882Z,100681.22
2018-10-06T02:37:40.042Z,100675.94
2018-10-06T02:40:06.100Z,100678.11
2018-10-06T02:42:32.049Z,100675.11
2018-10-06T02:44:57.999Z,100667.20
2018-10-06T02:47:24.123Z,100669.02
2018-10-06T02:49:50.163Z,100673.80
2018-10-06T02:52:16.100Z,100670.52
2018-10-06T02:54:42.218Z,100666.63
2018-10-06T02:57:08.159Z,100666.95
2018-10-06T02:59:34.103Z,100660.84
2018-10-06T03:02:00.063Z,100660.33
2018-10-06T03:04:26.040Z,100656.50
2018-10-06T03:06:51.996Z,100659.28
2018-10-06T03:09:17.941Z,100659.77
2018-10-06T03:11:43.891Z,100654.99
2018-10-06T03:14:09.849Z,100650.34
2018-10-06T03:16:35.791Z,100651.67
2018-10-06T03:19:01.732Z,100649.52
2018-10-06T03:21:27.700Z,100646.39
2018-10-06T03:23:53.683Z,100641.11
2018-10-06T03:26:19.671Z,100638.14
2018-10-06T03:28:45.641Z,100634.19
2018-10-06T03:31:11.610Z,100623.63
2018-10-06T03:33:37.560Z,100611.06
2018-10-06T03:36:03.540Z,100613.21
2018-10-06T03:38:29.518Z,100611.39
2018-10-06T03:40:55.496Z,100605.16
2018-10-06T03:43:21.443Z,100605.53
2018-10-06T03:45:47.400Z,100603.36
2018-10-06T03:48:13.366Z,100603.03
2018-10-06T03:50:39.332Z,100600.20
2018-10-06T03:53:05.372Z,100600.34
2018-10-06T03:55:31.357Z,100596.87
2018-10-06T03:57:57.312Z,100598.70
2018-10-06T04:00:23.274Z,100597.05
2018-10-06T04:02:49.300Z,100593.92
2018-10-06T04:05:15.323Z,100590.92
2018-10-06T04:07:41.272Z,100593.09
2018-10-06T04:10:07.236Z,100589.14
2018-10-06T04:12:33.183Z,100582.18
2018-10-06T04:14:59.136Z,100576.91
2018-10-06T04:24:10.445Z,100569.34
2018-10-06T04:26:36.423Z,100568.48
2018-10-06T04:29:02.389Z,100569.17
2018-10-06T04:31:28.375Z,100556.66
2018-10-06T04:33:54.352Z,100562.25
2018-10-06T04:36:20.299Z,100552.66
2018-10-06T04:38:46.267Z,100556.15
2018-10-06T04:41:12.220Z,100551.34
2018-10-06T04:43:38.193Z,100547.38
2018-10-06T04:46:04.148Z,100546.55
2018-10-06T04:48:30.132Z,100542.95
2018-10-06T04:50:56.080Z,100543.91
2018-10-06T04:53:22.059Z,100545.73
2018-10-06T04:55:48.077Z,100540.95
2018-10-06T04:58:14.046Z,100541.77
2018-10-06T05:00:39.997Z,100539.13
2018-10-06T05:03:06.020Z,100534.35
2018-10-06T05:05:31.972Z,100543.91
2018-10-06T05:07:57.911Z,100538.64
2018-10-06T05:10:23.913Z,100536.50
2018-10-06T05:12:49.952Z,100535.67
2018-10-06T05:15:15.987Z,100531.91
2018-10-06T05:17:41.939Z,100539.19
2018-10-06T05:20:08.116Z,100533.22
2018-10-06T05:22:34.063Z,100531.55
2018-10-06T05:25:00.014Z,100527.59
2018-10-06T05:27:25.983Z,100530.91
2018-10-06T05:29:51.927Z,100527.14
2018-10-06T05:32:17.878Z,100518.25
2018-10-06T05:34:43.967Z,100518.44
2018-10-06T05:37:09.937Z,100526.36
2018-10-06T05:39:35.979Z,100518.63
2018-10-06T05:42:01.923Z,100518.63
2018-10-06T05:44:27.863Z,100521.09
2018-10-06T05:46:53.817Z,100521.45
2018-10-06T05:49:19.771Z,100520.95
2018-10-06T05:51:45.734Z,100524.77
2018-10-06T05:54:11.684Z,100526.91
2018-10-06T05:56:37.647Z,100527.73
2018-10-06T05:59:03.746Z,100527.09
2018-10-06T06:01:29.648Z,100524.45
2018-10-06T06:03:55.593Z,100523.47
2018-10-06T06:06:21.577Z,100525.61
2018-10-06T06:08:47.531Z,100525.28
2018-10-06T06:11:13.491Z,100526.60
2018-10-06T06:13:39.436Z,100522.97
2018-10-06T06:16:05.404Z,100521.82
2018-10-06T06:18:31.352Z,100522.31
2018-10-06T06:20:57.395Z,100520.64
2018-10-06T06:23:23.357Z,100527.59
2018-10-06T06:25:49.323Z,100529.38
2018-10-06T06:28:15.272Z,100523.28
2018-10-06T06:30:41.306Z,100521.82
2018-10-06T06:33:07.219Z,100521.96
2018-10-06T06:35:33.337Z,100519.67
2018-10-06T06:37:59.282Z,100521.46
2018-10-06T06:40:25.264Z,100528.74
2018-10-06T06:42:51.290Z,100525.61
2018-10-06T06:45:17.244Z,100518.19
2018-10-06T06:47:43.187Z,100526.78
2018-10-06T06:50:09.151Z,100530.61
2018-10-06T06:52:35.104Z,100528.45
2018-10-06T06:55:01.074Z,100516.08
2018-10-06T06:57:27.160Z,100521.86
2018-10-06T06:59:53.222Z,100513.58
2018-10-06T07:02:19.171Z,100517.55
2018-10-06T07:04:45.116Z,100516.72
2018-10-06T07:07:11.060Z,100515.27
2018-10-06T07:09:37.016Z,100506.98
2018-10-06T07:12:02.967Z,100504.84
2018-10-06T07:14:28.960Z,100502.53
2018-10-06T07:16:54.910Z,100499.56
2018-10-06T07:19:20.862Z,100504.34
2018-10-06T07:21:46.812Z,100501.70
2018-10-06T07:24:12.756Z,100505.66
2018-10-06T07:26:38.707Z,100505.03
2018-10-06T07:29:04.692Z,100495.46
2018-10-06T07:31:30.624Z,100493.47
2018-10-06T07:33:56.589Z,100494.65
2018-10-06T07:36:22.543Z,100491.87
2018-10-06T07:38:48.532Z,100492.19
2018-10-06T07:41:14.478Z,100486.91
2018-10-06T07:43:40.493Z,100489.05
2018-10-06T07:46:06.444Z,100492.19
2018-10-06T07:48:32.414Z,100487.91
2018-10-06T07:50:58.464Z,100487.91
2018-10-06T07:53:24.448Z,100487.05
2018-10-06T07:55:50.417Z,100486.09
2018-10-06T07:58:16.492Z,100491.37
2018-10-06T08:00:42.480Z,100487.91
2018-10-06T08:03:08.430Z,100486.59
2018-10-06T08:05:34.391Z,100478.17
2018-10-06T08:08:00.342Z,100472.06
2018-10-06T08:10:26.476Z,100470.25
2018-10-06T08:12:52.426Z,100467.61
2018-10-06T08:15:18.392Z,100463.97
2018-10-06T08:17:44.344Z,100463.83
2018-10-06T08:20:10.294Z,100461.19
2018-10-06T08:22:36.249Z,100462.05
2018-10-06T08:25:02.215Z,100457.91
2018-10-06T08:27:28.168Z,100465.84
2018-10-06T08:29:54.119Z,100462.38
2018-10-06T08:32:20.064Z,100462.23
2018-10-06T08:34:46.044Z,100461.62
2018-10-06T08:37:12.112Z,100468.01
2018-10-06T08:39:38.125Z,100465.52
2018-10-06T08:42:04.075Z,100468.30
2018-10-06T08:44:30.035Z,100457.73
2018-10-06T08:46:56.022Z,100454.27
2018-10-06T08:49:21.967Z,100453.63
2018-10-06T08:51:47.985Z,100457.27
2018-10-06T08:54:13.947Z,100452.31
2018-10-06T08:56:39.888Z,100456.77
2018-10-06T08:59:05.878Z,100459.55
2018-10-06T09:01:31.837Z,100459.23
2018-10-06T09:03:57.800Z,100453.70
2018-10-06T09:06:23.782Z,100446.59
2018-10-06T09:08:49.770Z,100442.67
2018-10-06T09:11:15.732Z,100439.35
2018-10-06T09:13:41.699Z,100441.17
2018-10-06T09:16:07.649Z,100442.49
2018-10-06T09:18:33.615Z,100435.71
2018-10-06T09:20:59.556Z,100443.98
2018-10-06T09:23:25.521Z,100440.03
2018-10-06T09:25:51.468Z,100438.21
2018-10-06T09:28:17.452Z,100428.79
2018-10-06T09:30:43.397Z,100427.79
2018-10-06T09:33:09.469Z,100425.30
2018-10-06T09:35:35.409Z,100428.29
2018-10-06T09:38:01.404Z,100419.20
2018-10-06T09:40:27.370Z,100421.52
2018-10-06T09:42:53.492Z,100419.20
2018-10-06T09:45:19.315Z,100415.73
2018-10-06T09:47:45.271Z,100410.98
2018-10-06T09:50:11.219Z,100410.30
2018-10-06T09:52:37.163Z,100411.33
2018-10-06T09:55:03.302Z,100416.44
2018-10-06T09:57:29.268Z,100407.55
2018-10-06T09:59:55.205Z,100407.20
2018-10-06T10:02:21.135Z,100398.31
2018-10-06T10:04:47.069Z,100397.95
2018-10-06T10:07:13.019Z,100400.59
2018-10-06T10:09:39.035Z,100398.62
2018-10-06T10:12:04.970Z,100391.20
2018-10-06T10:14:30.908Z,100387.06
2018-10-06T10:16:56.877Z,100380.96
2018-10-06T10:19:22.819Z,100380.46
2018-10-06T10:21:49.089Z,100377.35
2018-10-06T10:24:14.960Z,100375.18
2018-10-06T10:26:40.907Z,100365.94
2018-10-06T10:29:06.875Z,100366.29
2018-10-06T10:31:32.843Z,100363.50
2018-10-06T10:33:58.789Z,100359.19
2018-10-06T10:36:24.771Z,100353.76
2018-10-06T10:38:50.793Z,100353.11
2018-10-06T10:41:16.760Z,100354.08
2018-10-06T10:43:42.698Z,100349.79
2018-10-06T10:46:08.683Z,100347.82
2018-10-06T10:48:34.644Z,100343.86
2018-10-06T10:51:00.626Z,100342.89
2018-10-06T10:53:26.657Z,100336.28
2018-10-06T10:55:52.624Z,100331.00
2018-10-06T10:58:18.590Z,100333.64
2018-10-06T11:00:44.613Z,100330.36
2018-10-06T11:03:10.560Z,100324.72
2018-10-06T11:05:36.514Z,100326.54
2018-10-06T11:08:02.461Z,100325.22
2018-10-06T11:10:28.513Z,100318.61
2018-10-06T11:12:54.473Z,100319.12
2018-10-06T11:15:20.519Z,100315.16
2018-10-06T11:17:46.480Z,100304.91
2018-10-06T11:20:12.400Z,100307.55
2018-10-06T11:22:38.341Z,100301.30
2018-10-06T11:25:04.387Z,100297.34
2018-10-06T11:27:30.346Z,100296.84
2018-10-06T11:29:56.320Z,100289.23
2018-10-06T11:32:22.374Z,100279.84
2018-10-06T11:34:48.339Z,100276.38
2018-10-06T11:37:14.419Z,100271.91
2018-10-06T11:39:40.935Z,100272.73
2018-10-06T11:42:06.912Z,100268.94
2018-10-06T11:44:32.862Z,100265.98
2018-10-06T11:46:58.909Z,100264.66
2018-10-06T11:49:24.856Z,100262.66
2018-10-06T11:51:50.914Z,100254.09
2018-10-06T11:54:16.885Z,100253.42
2018-10-06T11:56:42.846Z,100246.16
2018-10-06T11:59:08.888Z,100240.87
2018-10-06T12:01:34.836Z,100238.70
2018-10-06T12:04:00.813Z,100229.47
2018-10-06T12:06:26.890Z,100222.70
2018-10-06T12:08:52.861Z,100224.18
2018-10-06T12:11:18.887Z,100227.98
2018-10-06T12:13:44.917Z,100217.27
2018-10-06T12:16:10.886Z,100223.37
2018-10-06T12:18:36.864Z,100220.55
2018-10-06T12:21:02.806Z,100223.39
2018-10-06T12:23:28.851Z,100228.33
2018-10-06T12:25:54.837Z,100229.99
2018-10-06T12:28:20.799Z,100219.42
2018-10-06T12:30:46.750Z,100226.03
2018-10-06T12:33:12.698Z,100226.50
2018-10-06T12:35:38.739Z,100214.95
2018-10-06T12:38:04.820Z,100211.81
2018-10-06T12:40:30.765Z,100211.50
2018-10-06T12:42:56.728Z,100209.52
2018-10-06T12:45:22.676Z,100207.19
2018-10-06T12:47:48.653Z,100200.08
2018-10-06T12:50:14.660Z,100199.61
2018-10-06T12:52:40.646Z,100197.79
2018-10-06T12:55:06.747Z,100195.65
2018-10-06T12:57:32.689Z,100197.95
2018-10-06T12:59:58.667Z,100195.31
2018-10-06T13:02:24.608Z,100192.98
2018-10-06T13:04:50.603Z,100193.80
2018-10-06T13:07:16.577Z,100188.05
2018-10-06T13:09:42.699Z,100188.52
2018-10-06T13:12:08.660Z,100191.52
2018-10-06T13:14:34.604Z,100187.38
2018-10-06T13:17:00.668Z,100183.59
2018-10-06T13:19:26.620Z,100174.84
2018-10-06T13:21:52.568Z,100174.49
2018-10-06T13:24:18.533Z,100173.98
2018-10-06T13:26:44.552Z,100173.02
2018-10-06T13:29:10.506Z,100176.48
2018-10-06T13:31:36.560Z,100172.52
2018-10-06T13:34:02.512Z,100172.35
2018-10-06T13:36:28.464Z,100167.06
2018-10-06T13:38:54.424Z,100164.42
2018-10-06T13:41:20.412Z,100162.79
2018-10-06T13:43:46.355Z,100169.39
2018-10-06T13:46:12.327Z,100165.43
2018-10-06T13:48:38.314Z,100170.53
2018-10-06T13:51:04.281Z,100163.92
2018-10-06T13:53:30.242Z,100160.31
2018-10-06T13:55:56.280Z,100156.66
2018-10-06T13:58:22.252Z,100154.52
2018-10-06T14:00:48.217Z,100156.00
2018-10-06T14:03:14.266Z,100151.72
2018-10-06T14:05:40.140Z,100157.31
2018-10-06T14:08:06.097Z,100149.89
2018-10-06T14:10:32.172Z,100150.39
2018-10-06T14:12:58.080Z,100142.47
2018-10-06T14:15:24.138Z,100144.30
2018-10-06T14:17:50.100Z,100137.53
2018-10-06T14:20:16.069Z,100131.08
2018-10-06T14:22:42.016Z,100130.92
2018-10-06T14:25:08.116Z,100126.77
2018-10-06T14:27:34.083Z,100121.67
2018-10-06T14:30:00.028Z,100113.75
2018-10-06T14:32:26.022Z,100115.07
2018-10-06T14:34:51.996Z,100120.98
2018-10-06T14:37:17.973Z,100114.73
2018-10-06T14:39:43.922Z,100117.02
2018-10-06T14:42:09.863Z,100111.27
2018-10-06T14:44:35.820Z,100110.42
2018-10-06T14:47:01.820Z,100112.75
2018-10-06T14:49:27.763Z,100106.96
2018-10-06T14:51:53.712Z,100112.09
2018-10-06T14:54:19.664Z,100102.49
2018-10-06T14:56:45.637Z,100103.34
2018-10-06T14:59:11.589Z,100102.18
2018-10-06T15:01:37.640Z,100103.19
2018-10-06T15:04:03.587Z,100099.22
2018-10-06T15:06:29.560Z,100099.22
2018-10-06T15:08:55.527Z,100096.39
2018-10-06T15:11:21.493Z,100098.05
2018-10-06T15:13:47.432Z,100097.55
2018-10-06T15:16:13.389Z,100087.98
2018-10-06T15:18:39.343Z,100098.88
2018-10-06T15:21:05.319Z,100092.11
2018-10-06T15:23:31.287Z,100091.61
2018-10-06T15:25:57.272Z,100096.39
2018-10-06T15:28:23.215Z,100093.25
2018-10-06T15:30:49.192Z,100098.53
2018-10-06T15:33:15.157Z,100097.20
2018-10-06T15:35:41.137Z,100105.98
2018-10-06T15:38:07.080Z,100099.88
2018-10-06T15:40:33.035Z,100100.04
2018-10-06T15:42:59.023Z,100092.93
2018-10-06T15:45:24.963Z,100095.73
2018-10-06T15:47:50.935Z,100096.89
2018-10-06T15:50:16.894Z,100092.27
2018-10-06T15:52:42.832Z,100088.80
2018-10-06T15:55:08.788Z,100087.98
2018-10-06T15:57:34.739Z,100088.66
2018-10-06T16:00:00.704Z,100085.34
2018-10-06T16:02:26.702Z,100086.98
2018-10-06T16:04:52.678Z,100088.80
2018-10-06T16:07:18.665Z,100092.27
2018-10-06T16:09:44.624Z,100088.97
2018-10-06T16:12:10.573Z,100088.47
2018-10-06T16:14:36.615Z,100086.02
2018-10-06T16:17:02.573Z,100089.97
2018-10-06T16:19:28.561Z,100092.93
2018-10-06T16:21:54.511Z,100092.93
2018-10-06T16:24:20.493Z,100095.57
2018-10-06T16:26:46.442Z,100090.95
2018-10-06T16:29:12.465Z,100096.58
2018-10-06T16:31:38.408Z,100094.09
2018-10-06T16:34:04.376Z,100094.09
2018-10-06T16:36:30.333Z,100092.92
2018-10-06T16:38:56.333Z,100090.95
2018-10-06T16:41:22.301Z,100093.75
2018-10-06T16:43:48.251Z,100094.41
2018-10-06T16:46:14.212Z,100094.91
2018-10-06T16:48:40.188Z,100092.77
2018-10-06T16:51:06.296Z,100100.34
2018-10-06T16:53:32.401Z,100095.73
2018-10-06T16:55:58.343Z,100101.36
2018-10-06T16:58:24.315Z,100098.88
2018-10-06T17:00:50.278Z,100107.14
2018-10-06T17:03:16.241Z,100106.64
2018-10-06T17:05:42.257Z,100112.08
2018-10-06T17:08:08.209Z,100115.89
2018-10-06T17:10:34.159Z,100122.49
2018-10-06T17:13:00.139Z,100115.55
2018-10-06T17:15:26.072Z,100123.00
2018-10-06T17:17:52.057Z,100121.01
2018-10-06T17:20:18.002Z,100123.97
2018-10-06T17:22:43.973Z,100123.66
2018-10-06T17:25:09.999Z,100124.97
2018-10-06T17:27:35.926Z,100135.35
2018-10-06T17:30:01.898Z,100133.22
2018-10-06T17:32:27.857Z,100136.86
2018-10-06T17:34:53.831Z,100145.11
2018-10-06T17:37:19.776Z,100144.95
2018-10-06T17:39:45.745Z,100152.05
2018-10-06T17:42:11.709Z,100156.02
2018-10-06T17:44:37.653Z,100153.38
2018-10-06T17:47:03.605Z,100155.17
2018-10-06T17:49:29.564Z,100159.13
2018-10-06T17:51:55.535Z,100158.66
2018-10-06T17:54:21.521Z,100158.31
2018-10-06T17:56:47.487Z,100167.41
2018-10-06T17:59:13.435Z,100170.55
2018-10-06T18:01:39.428Z,100170.05
2018-10-06T18:04:05.415Z,100173.19
2018-10-06T18:06:31.394Z,100176.80
2018-10-06T18:08:57.344Z,100178.63
2018-10-06T18:11:23.432Z,100171.67
2018-10-06T18:13:49.355Z,100175.98
2018-10-06T18:16:15.336Z,100175.32
2018-10-06T18:18:41.367Z,100170.86
2018-10-06T18:21:07.473Z,100175.32
2018-10-06T18:23:33.318Z,100179.45
2018-10-06T18:25:59.419Z,100187.38
2018-10-06T18:28:25.555Z,100182.91
2018-10-06T18:30:51.532Z,100192.34
2018-10-06T18:33:17.481Z,100193.48
2018-10-06T18:35:43.528Z,100193.98
2018-10-06T18:38:09.483Z,100199.27
2018-10-06T18:40:35.440Z,100197.44
2018-10-06T18:43:01.524Z,100207.53
2018-10-06T18:45:27.387Z,100201.41
2018-10-06T18:47:53.340Z,100211.50
2018-10-06T18:50:19.325Z,100206.69
2018-10-06T18:52:45.260Z,100211.97
2018-10-06T18:55:11.213Z,100216.94
2018-10-06T18:57:37.257Z,100220.90
2018-10-06T19:00:03.161Z,100219.08
2018-10-06T19:02:29.218Z,100218.75
2018-10-06T19:04:55.250Z,100224.36
2018-10-06T19:07:21.205Z,100225.36
2018-10-06T19:09:47.208Z,100226.69
2018-10-06T19:12:13.208Z,100233.95
2018-10-06T19:14:39.242Z,100229.64
2018-10-06T19:17:05.208Z,100234.92
2018-10-06T19:19:31.215Z,100233.76
2018-10-06T19:21:57.221Z,100234.61
2018-10-06T19:24:23.208Z,100237.41
2018-10-06T19:26:49.185Z,100239.55
2018-10-06T19:29:15.199Z,100241.36
2018-10-06T19:31:41.249Z,100242.37
2018-10-06T19:34:07.216Z,100243.50
2018-10-06T19:36:33.171Z,100248.13
2018-10-06T19:38:59.153Z,100253.91
2018-10-06T19:41:25.115Z,100249.12
2018-10-06T19:43:51.080Z,100252.77
2018-10-06T19:46:17.051Z,100255.08
2018-10-06T19:48:43.022Z,100249.29
2018-10-06T19:51:11.147Z,100259.86
2018-10-06T19:53:37.999Z,100254.07
2018-10-06T19:56:04.012Z,100255.39
2018-10-06T19:58:31.353Z,100257.22
2018-10-06T20:00:57.391Z,100257.22
2018-10-06T20:03:24.516Z,100262.34
2018-10-06T20:05:50.432Z,100264.14
2018-10-06T20:08:16.804Z,100262.81
2018-10-06T20:10:42.879Z,100261.50
2018-10-06T20:13:08.851Z,100264.98
2018-10-06T20:15:35.449Z,100268.45
2018-10-06T20:18:01.401Z,100274.55
2018-10-06T20:20:28.394Z,100270.42
2018-10-06T20:22:54.357Z,100275.20
2018-10-06T20:25:20.329Z,100278.50
2018-10-06T20:27:46.332Z,100276.36
2018-10-06T20:30:12.309Z,100276.20
2018-10-06T20:32:38.255Z,100279.17
2018-10-06T20:35:04.284Z,100280.48
2018-10-06T20:37:30.443Z,100285.77
2018-10-06T20:39:56.412Z,100288.09
2018-10-06T20:42:23.261Z,100290.55
2018-10-06T20:44:49.459Z,100292.38
2018-10-06T20:47:15.416Z,100289.06
2018-10-06T20:49:41.367Z,100294.20
2018-10-06T20:52:07.323Z,100289.23
2018-10-06T20:54:33.354Z,100296.19
2018-10-06T20:56:59.300Z,100307.26
2018-10-06T20:59:25.252Z,100302.80
2018-10-06T21:01:51.268Z,100309.91
2018-10-06T21:04:17.211Z,100312.69
2018-10-06T21:06:43.203Z,100315.34
2018-10-06T21:09:09.152Z,100315.48
2018-10-06T21:11:35.130Z,100315.98
2018-10-06T21:14:01.068Z,100315.48
2018-10-06T21:16:27.059Z,100315.84
2018-10-06T21:18:53.028Z,100315.34
2018-10-06T21:21:19.020Z,100315.84
2018-10-06T21:23:44.954Z,100316.80
2018-10-06T21:26:10.927Z,100316.16
2018-10-06T21:28:36.921Z,100318.13
2018-10-06T21:31:02.880Z,100317.66
2018-10-06T21:33:28.856Z,100322.44
2018-10-06T21:35:54.797Z,100325.23
2018-10-06T21:38:20.750Z,100324.41
2018-10-06T21:40:46.708Z,100327.88
2018-10-06T21:43:12.771Z,100320.95
2018-10-06T21:45:38.784Z,100317.81
2018-10-06T21:48:04.750Z,100327.55
2018-10-06T21:50:30.701Z,100332.02
2018-10-06T21:52:56.784Z,100336.30
2018-10-06T21:55:22.948Z,100335.63
2018-10-06T21:57:48.941Z,100337.28
2018-10-06T22:00:14.902Z,100336.28
2018-10-06T22:02:40.882Z,100338.27
2018-10-06T22:05:06.863Z,100341.27
2018-10-06T22:07:32.823Z,100346.87
2018-10-06T22:09:58.796Z,100353.79
2018-10-06T22:12:24.744Z,100354.64
2018-10-06T22:14:50.697Z,100360.89
2018-10-06T22:17:16.851Z,100360.08
2018-10-06T22:19:42.812Z,100363.22
2018-10-06T22:22:08.746Z,100366.36
2018-10-06T22:24:34.735Z,100365.67
2018-10-06T22:27:00.710Z,100362.72
2018-10-06T22:29:26.672Z,100366.67
2018-10-06T22:31:52.636Z,100364.19
2018-10-06T22:34:18.618Z,100354.30
2018-10-06T22:36:44.580Z,100353.62
2018-10-06T22:39:10.531Z,100350.34
2018-10-06T22:41:36.487Z,100354.77
2018-10-06T22:44:02.549Z,100354.30
2018-10-06T22:46:28.488Z,100352.63
2018-10-06T22:48:54.496Z,100351.80
2018-10-06T22:51:20.469Z,100342.88
2018-10-06T22:53:46.427Z,100347.70
2018-10-06T22:56:12.489Z,100349.98
2018-10-06T22:58:38.432Z,100364.87
2018-10-06T23:01:04.399Z,100367.51
2018-10-06T23:03:30.488Z,100379.55
2018-10-06T23:05:56.473Z,100375.27
2018-10-06T23:08:22.415Z,100368.98
2018-10-06T23:10:48.467Z,100369.65
2018-10-06T23:13:14.500Z,100366.84
2018-10-06T23:15:40.525Z,100358.41
2018-10-06T23:18:06.531Z,100365.34
2018-10-06T23:20:32.572Z,100375.44
2018-10-06T23:22:58.602Z,100370.80
2018-10-06T23:25:24.559Z,100366.98
2018-10-06T23:27:50.524Z,100369.30
2018-10-06T23:30:16.485Z,100374.41
2018-10-06T23:32:42.421Z,100380.19
2018-10-06T23:35:08.364Z,100381.01
2018-10-06T23:37:34.319Z,100381.86
2018-10-06T23:40:00.284Z,100381.19
2018-10-06T23:42:26.256Z,100383.83
2018-10-06T23:44:52.287Z,100382.19
2018-10-06T23:47:18.229Z,100390.11
2018-10-06T23:49:44.280Z,100394.72
2018-10-06T23:52:10.263Z,100416.20
2018-10-06T23:54:36.204Z,100417.99
2018-10-06T23:57:02.163Z,100427.09
2018-10-06T23:59:28.104Z,100442.27
